This is the latest recevied weather packets stored in our database for station/object W4VCO. If no packets are shown the sender has not sent any weather packets the latest 10 day(s).
| Time | Temp. | Humidity | Pressure | Rain* | Wind** | Luminosity | Snow |
|---|---|---|---|---|---|---|---|
| 1778068790 | 20° C | 92% | 1015 hPa | 0 mm | - | - | - |
| 1778059791 | 18.89° C | 87% | 1014.2 hPa | 0 mm | - | - | - |
| 1778058590 | 18.89° C | 88% | 1014.1 hPa | 0 mm | - | - | - |
| 1778056789 | 18.33° C | 88% | 1013.9 hPa | 0 mm | - | - | - |
| 1778054395 | 18.33° C | 87% | 1014.2 hPa | 0 mm | - | - | - |
| 1778054097 | 18.33° C | 87% | 1014.2 hPa | 0 mm | - | - | - |
| 1778052309 | 18.33° C | 86% | 1014.2 hPa | 0 mm | - | - | - |
| 1778051414 | 18.33° C | 86% | 1014.2 hPa | 0 mm | - | - | - |
| 1778050813 | 18.33° C | 85% | 1014.2 hPa | 0 mm | - | - | - |
| 1778048714 | 18.33° C | 83% | 1014.5 hPa | 0 mm | - | - | - |
| 1778045110 | 19.44° C | 79% | 1014.8 hPa | 0 mm | - | - | - |
| 1778044213 | 20° C | 77% | 1015 hPa | 0 mm | - | - | - |
| 1778042713 | 20.56° C | 74% | 1015.3 hPa | 0 mm | - | - | - |
| 1778041514 | 21.11° C | 72% | 1015.4 hPa | 0 mm | - | - | - |
| 1778041216 | 21.11° C | 72% | 1015.3 hPa | 0 mm | - | - | - |
| 1778040913 | 21.11° C | 71% | 1015.2 hPa | 0 mm | - | - | - |
| 1778039714 | 21.67° C | 70% | 1015.3 hPa | 0 mm | - | - | - |
| 1778039414 | 21.67° C | 69% | 1015.3 hPa | 0 mm | - | - | - |
| 1778037614 | 21.67° C | 67% | 1015.3 hPa | 0 mm | - | - | - |
| 1778030413 | 24.44° C | 58% | 1014.5 hPa | 0 mm | - | - | - |
| 1778025911 | 26.11° C | 53% | 1013.5 hPa | 0 mm | - | - | - |
| 1778019311 | 30.56° C | 34% | 1012.6 hPa | 0 mm | - | - | - |
| 1778019014 | 31.11° C | 33% | 1012.7 hPa | 0 mm | - | - | - |
| 1778018713 | 31.11° C | 34% | 1012.5 hPa | 0 mm | - | - | - |
| 1778017214 | 31.67° C | 34% | 1012.5 hPa | 0 mm | - | - | - |
* Rain latest hour (hover to see other rain measurements)
** Current wind speed in m/s (hover to see current wind gust speed)